sensor_id;sensor_type;location;lat;lon;timestamp;P1;durP1;ratioP1;P2;durP2;ratioP2
24799;SDS011;12897;50.812;4.430;2023-04-25T00:02:03;24.70;;;5.20;;
24799;SDS011;12897;50.812;4.430;2023-04-25T00:04:31;19.80;;;4.70;;
24799;SDS011;12897;50.812;4.430;2023-04-25T00:06:59;25.40;;;4.62;;
24799;SDS011;12897;50.812;4.430;2023-04-25T00:09:27;24.23;;;5.45;;
24799;SDS011;12897;50.812;4.430;2023-04-25T00:11:55;25.77;;;5.15;;
24799;SDS011;12897;50.812;4.430;2023-04-25T00:14:23;26.33;;;5.05;;
24799;SDS011;12897;50.812;4.430;2023-04-25T00:16:50;27.58;;;4.75;;
24799;SDS011;12897;50.812;4.430;2023-04-25T00:19:19;24.30;;;5.15;;
24799;SDS011;12897;50.812;4.430;2023-04-25T00:21:47;25.62;;;4.62;;
24799;SDS011;12897;50.812;4.430;2023-04-25T00:24:15;28.05;;;5.15;;
24799;SDS011;12897;50.812;4.430;2023-04-25T00:26:42;31.95;;;4.65;;
24799;SDS011;12897;50.812;4.430;2023-04-25T00:29:10;25.00;;;4.33;;
24799;SDS011;12897;50.812;4.430;2023-04-25T00:31:37;21.23;;;4.17;;
24799;SDS011;12897;50.812;4.430;2023-04-25T00:34:06;26.87;;;5.28;;
24799;SDS011;12897;50.812;4.430;2023-04-25T00:36:34;19.37;;;4.30;;
24799;SDS011;12897;50.812;4.430;2023-04-25T00:39:03;28.25;;;5.20;;
24799;SDS011;12897;50.812;4.430;2023-04-25T00:41:30;24.82;;;4.62;;
24799;SDS011;12897;50.812;4.430;2023-04-25T00:43:59;29.42;;;4.87;;
24799;SDS011;12897;50.812;4.430;2023-04-25T00:46:27;24.27;;;4.40;;
24799;SDS011;12897;50.812;4.430;2023-04-25T00:48:55;27.82;;;4.97;;
24799;SDS011;12897;50.812;4.430;2023-04-25T00:51:23;34.95;;;5.17;;
24799;SDS011;12897;50.812;4.430;2023-04-25T00:53:52;21.30;;;4.72;;
24799;SDS011;12897;50.812;4.430;2023-04-25T00:56:20;26.05;;;4.67;;
24799;SDS011;12897;50.812;4.430;2023-04-25T00:58:48;32.25;;;5.33;;
24799;SDS011;12897;50.812;4.430;2023-04-25T01:01:18;29.40;;;5.62;;
24799;SDS011;12897;50.812;4.430;2023-04-25T01:03:46;25.05;;;5.12;;
24799;SDS011;12897;50.812;4.430;2023-04-25T01:06:16;31.55;;;5.53;;
24799;SDS011;12897;50.812;4.430;2023-04-25T01:08:43;29.80;;;5.62;;
24799;SDS011;12897;50.812;4.430;2023-04-25T01:11:11;22.40;;;5.22;;
24799;SDS011;12897;50.812;4.430;2023-04-25T01:13:39;24.67;;;5.00;;
24799;SDS011;12897;50.812;4.430;2023-04-25T01:16:07;31.48;;;5.53;;
24799;SDS011;12897;50.812;4.430;2023-04-25T01:21:21;19.02;;;5.15;;
24799;SDS011;12897;50.812;4.430;2023-04-25T01:23:51;28.10;;;5.95;;
24799;SDS011;12897;50.812;4.430;2023-04-25T01:26:20;26.80;;;4.95;;
24799;SDS011;12897;50.812;4.430;2023-04-25T01:28:49;27.02;;;4.75;;
24799;SDS011;12897;50.812;4.430;2023-04-25T01:31:17;32.28;;;6.20;;
24799;SDS011;12897;50.812;4.430;2023-04-25T01:33:45;30.75;;;5.17;;
24799;SDS011;12897;50.812;4.430;2023-04-25T01:36:13;26.07;;;5.40;;
24799;SDS011;12897;50.812;4.430;2023-04-25T01:38:42;34.50;;;6.58;;
24799;SDS011;12897;50.812;4.430;2023-04-25T01:41:09;31.90;;;5.70;;
24799;SDS011;12897;50.812;4.430;2023-04-25T01:43:37;30.25;;;6.28;;
24799;SDS011;12897;50.812;4.430;2023-04-25T01:46:05;27.98;;;5.85;;
24799;SDS011;12897;50.812;4.430;2023-04-25T01:48:32;17.98;;;5.35;;
24799;SDS011;12897;50.812;4.430;2023-04-25T01:51:00;27.98;;;6.55;;
24799;SDS011;12897;50.812;4.430;2023-04-25T01:53:28;35.23;;;5.65;;
24799;SDS011;12897;50.812;4.430;2023-04-25T01:55:56;33.13;;;6.10;;
24799;SDS011;12897;50.812;4.430;2023-04-25T01:58:23;30.17;;;5.87;;
24799;SDS011;12897;50.812;4.430;2023-04-25T02:00:51;29.35;;;5.90;;
24799;SDS011;12897;50.812;4.430;2023-04-25T02:03:18;29.35;;;5.67;;
24799;SDS011;12897;50.812;4.430;2023-04-25T02:05:46;29.48;;;5.97;;
24799;SDS011;12897;50.812;4.430;2023-04-25T02:08:13;32.53;;;6.17;;
24799;SDS011;12897;50.812;4.430;2023-04-25T02:10:43;25.23;;;5.83;;
24799;SDS011;12897;50.812;4.430;2023-04-25T02:13:11;27.65;;;5.47;;
24799;SDS011;12897;50.812;4.430;2023-04-25T02:15:38;29.05;;;6.20;;
24799;SDS011;12897;50.812;4.430;2023-04-25T02:18:06;32.42;;;6.30;;
24799;SDS011;12897;50.812;4.430;2023-04-25T02:20:36;21.03;;;5.17;;
24799;SDS011;12897;50.812;4.430;2023-04-25T02:23:03;21.33;;;6.17;;
24799;SDS011;12897;50.812;4.430;2023-04-25T02:25:31;33.88;;;6.17;;
24799;SDS011;12897;50.812;4.430;2023-04-25T02:27:59;25.85;;;7.10;;
24799;SDS011;12897;50.812;4.430;2023-04-25T02:30:26;26.45;;;5.75;;
24799;SDS011;12897;50.812;4.430;2023-04-25T02:32:54;22.15;;;5.65;;
24799;SDS011;12897;50.812;4.430;2023-04-25T02:35:22;24.05;;;6.42;;
24799;SDS011;12897;50.812;4.430;2023-04-25T02:37:49;32.85;;;6.40;;
24799;SDS011;12897;50.812;4.430;2023-04-25T02:40:17;31.42;;;6.87;;
24799;SDS011;12897;50.812;4.430;2023-04-25T02:42:44;27.17;;;6.53;;
24799;SDS011;12897;50.812;4.430;2023-04-25T02:45:12;22.35;;;6.20;;
24799;SDS011;12897;50.812;4.430;2023-04-25T02:47:40;25.05;;;7.42;;
24799;SDS011;12897;50.812;4.430;2023-04-25T02:50:07;26.37;;;5.90;;
24799;SDS011;12897;50.812;4.430;2023-04-25T02:52:35;27.87;;;6.30;;
24799;SDS011;12897;50.812;4.430;2023-04-25T02:55:03;24.85;;;6.55;;
24799;SDS011;12897;50.812;4.430;2023-04-25T02:57:31;31.10;;;7.30;;
24799;SDS011;12897;50.812;4.430;2023-04-25T02:59:58;30.00;;;7.17;;
24799;SDS011;12897;50.812;4.430;2023-04-25T03:02:26;35.55;;;7.53;;
24799;SDS011;12897;50.812;4.430;2023-04-25T03:04:53;26.65;;;6.75;;
24799;SDS011;12897;50.812;4.430;2023-04-25T03:07:21;25.85;;;6.67;;
24799;SDS011;12897;50.812;4.430;2023-04-25T03:09:48;29.63;;;7.33;;
24799;SDS011;12897;50.812;4.430;2023-04-25T03:12:16;28.57;;;7.30;;
24799;SDS011;12897;50.812;4.430;2023-04-25T03:14:43;21.97;;;6.90;;
24799;SDS011;12897;50.812;4.430;2023-04-25T03:17:11;28.62;;;6.83;;
24799;SDS011;12897;50.812;4.430;2023-04-25T03:19:38;28.83;;;7.08;;
24799;SDS011;12897;50.812;4.430;2023-04-25T03:22:06;29.27;;;6.78;;
24799;SDS011;12897;50.812;4.430;2023-04-25T03:24:33;27.07;;;6.47;;
24799;SDS011;12897;50.812;4.430;2023-04-25T03:27:02;30.15;;;6.85;;
24799;SDS011;12897;50.812;4.430;2023-04-25T03:29:30;37.17;;;7.75;;
24799;SDS011;12897;50.812;4.430;2023-04-25T03:31:57;30.97;;;6.58;;
24799;SDS011;12897;50.812;4.430;2023-04-25T03:34:25;38.08;;;7.10;;
24799;SDS011;12897;50.812;4.430;2023-04-25T03:36:53;32.88;;;6.50;;
24799;SDS011;12897;50.812;4.430;2023-04-25T03:39:21;38.78;;;6.45;;
24799;SDS011;12897;50.812;4.430;2023-04-25T03:41:49;26.45;;;5.55;;
24799;SDS011;12897;50.812;4.430;2023-04-25T03:44:16;35.45;;;6.62;;
24799;SDS011;12897;50.812;4.430;2023-04-25T03:46:44;28.77;;;5.60;;
24799;SDS011;12897;50.812;4.430;2023-04-25T03:49:11;37.70;;;6.25;;
24799;SDS011;12897;50.812;4.430;2023-04-25T03:51:39;30.95;;;6.50;;
24799;SDS011;12897;50.812;4.430;2023-04-25T03:54:07;27.60;;;6.60;;
24799;SDS011;12897;50.812;4.430;2023-04-25T03:56:34;34.98;;;6.58;;
24799;SDS011;12897;50.812;4.430;2023-04-25T03:59:02;21.45;;;5.45;;
24799;SDS011;12897;50.812;4.430;2023-04-25T04:01:29;24.45;;;6.28;;
24799;SDS011;12897;50.812;4.430;2023-04-25T04:03:57;25.20;;;5.62;;
24799;SDS011;12897;50.812;4.430;2023-04-25T04:06:25;33.98;;;6.40;;
24799;SDS011;12897;50.812;4.430;2023-04-25T04:08:52;40.40;;;6.65;;
24799;SDS011;12897;50.812;4.430;2023-04-25T04:11:21;23.50;;;5.95;;
24799;SDS011;12897;50.812;4.430;2023-04-25T04:13:48;28.20;;;6.80;;
24799;SDS011;12897;50.812;4.430;2023-04-25T04:16:16;24.85;;;5.37;;
24799;SDS011;12897;50.812;4.430;2023-04-25T04:18:45;25.88;;;5.90;;
24799;SDS011;12897;50.812;4.430;2023-04-25T04:21:12;23.70;;;5.40;;
24799;SDS011;12897;50.812;4.430;2023-04-25T04:23:40;38.53;;;6.05;;
24799;SDS011;12897;50.812;4.430;2023-04-25T04:26:08;29.67;;;6.25;;
24799;SDS011;12897;50.812;4.430;2023-04-25T04:28:37;25.30;;;6.25;;
24799;SDS011;12897;50.812;4.430;2023-04-25T04:31:04;31.37;;;5.58;;
24799;SDS011;12897;50.812;4.430;2023-04-25T04:33:33;22.10;;;5.83;;
24799;SDS011;12897;50.812;4.430;2023-04-25T04:36:00;29.18;;;6.10;;
24799;SDS011;12897;50.812;4.430;2023-04-25T04:38:28;24.92;;;5.62;;
24799;SDS011;12897;50.812;4.430;2023-04-25T04:40:56;26.73;;;5.97;;
24799;SDS011;12897;50.812;4.430;2023-04-25T04:43:24;25.20;;;5.65;;
24799;SDS011;12897;50.812;4.430;2023-04-25T04:45:51;38.80;;;11.40;;
24799;SDS011;12897;50.812;4.430;2023-04-25T04:48:20;25.43;;;5.37;;
24799;SDS011;12897;50.812;4.430;2023-04-25T04:50:48;26.95;;;6.75;;
24799;SDS011;12897;50.812;4.430;2023-04-25T04:53:16;28.75;;;6.08;;
24799;SDS011;12897;50.812;4.430;2023-04-25T04:55:43;25.48;;;5.90;;
24799;SDS011;12897;50.812;4.430;2023-04-25T04:58:12;23.47;;;5.95;;
24799;SDS011;12897;50.812;4.430;2023-04-25T05:00:39;24.35;;;5.42;;
24799;SDS011;12897;50.812;4.430;2023-04-25T05:03:07;26.07;;;6.58;;
24799;SDS011;12897;50.812;4.430;2023-04-25T05:05:34;24.92;;;5.72;;
24799;SDS011;12897;50.812;4.430;2023-04-25T05:08:03;28.13;;;8.13;;
24799;SDS011;12897;50.812;4.430;2023-04-25T05:10:31;25.48;;;6.67;;
24799;SDS011;12897;50.812;4.430;2023-04-25T05:12:58;24.25;;;6.90;;
24799;SDS011;12897;50.812;4.430;2023-04-25T05:15:26;27.00;;;6.47;;
24799;SDS011;12897;50.812;4.430;2023-04-25T05:17:54;26.60;;;6.22;;
24799;SDS011;12897;50.812;4.430;2023-04-25T05:20:21;29.48;;;5.95;;
24799;SDS011;12897;50.812;4.430;2023-04-25T05:22:49;24.92;;;6.78;;
24799;SDS011;12897;50.812;4.430;2023-04-25T05:25:16;33.40;;;7.45;;
24799;SDS011;12897;50.812;4.430;2023-04-25T05:27:44;28.35;;;7.42;;
24799;SDS011;12897;50.812;4.430;2023-04-25T05:30:11;19.57;;;6.20;;
24799;SDS011;12897;50.812;4.430;2023-04-25T05:32:39;31.33;;;8.30;;
24799;SDS011;12897;50.812;4.430;2023-04-25T05:35:07;28.67;;;7.50;;
24799;SDS011;12897;50.812;4.430;2023-04-25T05:37:36;37.08;;;6.40;;
24799;SDS011;12897;50.812;4.430;2023-04-25T05:40:04;24.57;;;5.53;;
24799;SDS011;12897;50.812;4.430;2023-04-25T05:42:33;22.10;;;5.67;;
24799;SDS011;12897;50.812;4.430;2023-04-25T05:45:01;21.62;;;6.12;;
24799;SDS011;12897;50.812;4.430;2023-04-25T05:47:30;31.57;;;5.85;;
24799;SDS011;12897;50.812;4.430;2023-04-25T05:49:57;24.25;;;5.30;;
24799;SDS011;12897;50.812;4.430;2023-04-25T05:52:25;26.80;;;6.25;;
24799;SDS011;12897;50.812;4.430;2023-04-25T05:54:52;31.75;;;5.22;;
24799;SDS011;12897;50.812;4.430;2023-04-25T05:57:21;22.20;;;5.35;;
24799;SDS011;12897;50.812;4.430;2023-04-25T05:59:51;28.40;;;5.90;;
24799;SDS011;12897;50.812;4.430;2023-04-25T06:02:19;26.77;;;5.37;;
24799;SDS011;12897;50.812;4.430;2023-04-25T06:04:50;22.25;;;5.58;;
24799;SDS011;12897;50.812;4.430;2023-04-25T06:07:18;23.65;;;5.12;;
24799;SDS011;12897;50.812;4.430;2023-04-25T06:09:46;27.07;;;5.40;;
24799;SDS011;12897;50.812;4.430;2023-04-25T06:12:14;16.20;;;5.37;;
24799;SDS011;12897;50.812;4.430;2023-04-25T06:14:42;24.32;;;5.65;;
24799;SDS011;12897;50.812;4.430;2023-04-25T06:17:11;28.23;;;5.58;;
24799;SDS011;12897;50.812;4.430;2023-04-25T06:19:39;30.00;;;5.53;;
24799;SDS011;12897;50.812;4.430;2023-04-25T06:22:07;26.95;;;6.35;;
24799;SDS011;12897;50.812;4.430;2023-04-25T06:24:34;25.62;;;6.05;;
24799;SDS011;12897;50.812;4.430;2023-04-25T06:27:02;24.87;;;5.97;;
24799;SDS011;12897;50.812;4.430;2023-04-25T06:29:32;21.60;;;5.30;;
24799;SDS011;12897;50.812;4.430;2023-04-25T06:31:59;22.80;;;6.33;;
24799;SDS011;12897;50.812;4.430;2023-04-25T06:34:26;33.95;;;7.12;;
24799;SDS011;12897;50.812;4.430;2023-04-25T06:36:55;32.98;;;6.60;;
24799;SDS011;12897;50.812;4.430;2023-04-25T06:39:22;29.00;;;5.70;;
24799;SDS011;12897;50.812;4.430;2023-04-25T06:41:51;33.60;;;6.92;;
24799;SDS011;12897;50.812;4.430;2023-04-25T06:44:19;29.35;;;7.20;;
24799;SDS011;12897;50.812;4.430;2023-04-25T06:46:48;30.87;;;6.60;;
24799;SDS011;12897;50.812;4.430;2023-04-25T06:49:15;30.55;;;7.42;;
24799;SDS011;12897;50.812;4.430;2023-04-25T06:51:43;30.97;;;7.33;;
24799;SDS011;12897;50.812;4.430;2023-04-25T06:54:11;32.53;;;7.30;;
24799;SDS011;12897;50.812;4.430;2023-04-25T06:56:38;28.52;;;8.05;;
24799;SDS011;12897;50.812;4.430;2023-04-25T06:59:08;37.00;;;8.45;;
24799;SDS011;12897;50.812;4.430;2023-04-25T07:01:37;29.40;;;7.90;;
24799;SDS011;12897;50.812;4.430;2023-04-25T07:04:06;24.92;;;7.70;;
24799;SDS011;12897;50.812;4.430;2023-04-25T07:06:33;31.70;;;6.72;;
24799;SDS011;12897;50.812;4.430;2023-04-25T07:09:02;17.30;;;5.43;;
24799;SDS011;12897;50.812;4.430;2023-04-25T07:11:32;28.38;;;6.22;;
24799;SDS011;12897;50.812;4.430;2023-04-25T07:13:59;19.05;;;5.78;;
24799;SDS011;12897;50.812;4.430;2023-04-25T07:16:27;25.85;;;4.75;;
24799;SDS011;12897;50.812;4.430;2023-04-25T07:18:55;25.43;;;5.55;;
24799;SDS011;12897;50.812;4.430;2023-04-25T07:21:24;21.07;;;4.33;;
24799;SDS011;12897;50.812;4.430;2023-04-25T07:23:52;25.75;;;5.00;;
24799;SDS011;12897;50.812;4.430;2023-04-25T07:26:19;15.93;;;4.17;;
24799;SDS011;12897;50.812;4.430;2023-04-25T07:28:48;16.52;;;4.65;;
24799;SDS011;12897;50.812;4.430;2023-04-25T07:31:17;23.92;;;4.30;;
24799;SDS011;12897;50.812;4.430;2023-04-25T07:33:45;27.00;;;4.37;;
24799;SDS011;12897;50.812;4.430;2023-04-25T07:36:13;23.80;;;4.53;;
24799;SDS011;12897;50.812;4.430;2023-04-25T07:38:49;20.40;;;4.50;;
24799;SDS011;12897;50.812;4.430;2023-04-25T07:41:17;27.00;;;4.05;;
24799;SDS011;12897;50.812;4.430;2023-04-25T07:43:45;18.48;;;3.42;;
24799;SDS011;12897;50.812;4.430;2023-04-25T07:46:12;22.70;;;4.03;;
24799;SDS011;12897;50.812;4.430;2023-04-25T07:48:41;20.17;;;3.70;;
24799;SDS011;12897;50.812;4.430;2023-04-25T07:51:09;16.05;;;3.77;;
24799;SDS011;12897;50.812;4.430;2023-04-25T07:53:42;21.60;;;4.37;;
24799;SDS011;12897;50.812;4.430;2023-04-25T07:56:06;17.20;;;3.70;;
24799;SDS011;12897;50.812;4.430;2023-04-25T07:58:35;26.52;;;4.60;;
24799;SDS011;12897;50.812;4.430;2023-04-25T08:01:03;23.05;;;4.50;;
24799;SDS011;12897;50.812;4.430;2023-04-25T08:03:32;22.58;;;4.40;;
24799;SDS011;12897;50.812;4.430;2023-04-25T08:05:59;22.15;;;4.22;;
24799;SDS011;12897;50.812;4.430;2023-04-25T08:08:27;23.20;;;4.42;;
24799;SDS011;12897;50.812;4.430;2023-04-25T08:10:55;26.02;;;4.85;;
24799;SDS011;12897;50.812;4.430;2023-04-25T08:13:25;16.95;;;3.37;;
24799;SDS011;12897;50.812;4.430;2023-04-25T08:15:53;26.00;;;4.62;;
24799;SDS011;12897;50.812;4.430;2023-04-25T08:18:20;23.70;;;4.47;;
24799;SDS011;12897;50.812;4.430;2023-04-25T08:20:51;18.60;;;4.30;;
24799;SDS011;12897;50.812;4.430;2023-04-25T08:23:18;19.35;;;3.83;;
24799;SDS011;12897;50.812;4.430;2023-04-25T08:25:46;15.20;;;3.55;;
24799;SDS011;12897;50.812;4.430;2023-04-25T08:28:15;15.57;;;4.10;;
24799;SDS011;12897;50.812;4.430;2023-04-25T08:30:44;26.25;;;4.33;;
24799;SDS011;12897;50.812;4.430;2023-04-25T08:33:11;19.35;;;3.87;;
24799;SDS011;12897;50.812;4.430;2023-04-25T08:35:39;22.17;;;4.05;;
24799;SDS011;12897;50.812;4.430;2023-04-25T08:38:06;16.73;;;4.10;;
24799;SDS011;12897;50.812;4.430;2023-04-25T08:40:35;19.27;;;3.72;;
24799;SDS011;12897;50.812;4.430;2023-04-25T08:43:04;17.37;;;3.72;;
24799;SDS011;12897;50.812;4.430;2023-04-25T08:45:35;16.37;;;3.83;;
24799;SDS011;12897;50.812;4.430;2023-04-25T08:48:07;22.60;;;4.20;;
24799;SDS011;12897;50.812;4.430;2023-04-25T08:50:45;21.77;;;3.90;;
24799;SDS011;12897;50.812;4.430;2023-04-25T08:53:12;15.72;;;3.95;;
24799;SDS011;12897;50.812;4.430;2023-04-25T08:55:50;15.03;;;3.55;;
24799;SDS011;12897;50.812;4.430;2023-04-25T08:58:15;19.67;;;4.05;;
24799;SDS011;12897;50.812;4.430;2023-04-25T09:00:45;21.52;;;3.67;;
24799;SDS011;12897;50.812;4.430;2023-04-25T09:03:13;19.23;;;3.08;;
24799;SDS011;12897;50.812;4.430;2023-04-25T09:05:41;13.38;;;3.20;;
24799;SDS011;12897;50.812;4.430;2023-04-25T09:08:11;16.60;;;3.10;;
24799;SDS011;12897;50.812;4.430;2023-04-25T09:10:40;19.32;;;3.20;;
24799;SDS011;12897;50.812;4.430;2023-04-25T09:13:08;18.60;;;3.37;;
24799;SDS011;12897;50.812;4.430;2023-04-25T09:15:51;19.23;;;4.08;;
24799;SDS011;12897;50.812;4.430;2023-04-25T09:18:29;17.65;;;3.72;;
24799;SDS011;12897;50.812;4.430;2023-04-25T09:21:09;20.97;;;3.33;;
24799;SDS011;12897;50.812;4.430;2023-04-25T09:23:47;13.20;;;3.47;;
24799;SDS011;12897;50.812;4.430;2023-04-25T09:26:15;14.47;;;3.33;;
24799;SDS011;12897;50.812;4.430;2023-04-25T09:28:45;17.60;;;2.95;;
24799;SDS011;12897;50.812;4.430;2023-04-25T09:31:23;22.70;;;3.25;;
24799;SDS011;12897;50.812;4.430;2023-04-25T09:33:58;15.48;;;2.95;;
24799;SDS011;12897;50.812;4.430;2023-04-25T09:36:27;14.18;;;3.33;;
24799;SDS011;12897;50.812;4.430;2023-04-25T09:38:57;11.80;;;2.90;;
24799;SDS011;12897;50.812;4.430;2023-04-25T09:41:27;21.68;;;3.27;;
24799;SDS011;12897;50.812;4.430;2023-04-25T09:44:01;17.65;;;3.02;;
24799;SDS011;12897;50.812;4.430;2023-04-25T09:46:32;13.05;;;3.02;;
24799;SDS011;12897;50.812;4.430;2023-04-25T09:49:05;10.78;;;2.55;;
24799;SDS011;12897;50.812;4.430;2023-04-25T09:51:34;10.98;;;2.67;;
24799;SDS011;12897;50.812;4.430;2023-04-25T09:54:01;10.75;;;3.25;;
24799;SDS011;12897;50.812;4.430;2023-04-25T09:56:30;13.65;;;2.92;;
24799;SDS011;12897;50.812;4.430;2023-04-25T09:59:01;19.98;;;3.40;;
24799;SDS011;12897;50.812;4.430;2023-04-25T10:01:32;13.40;;;3.20;;
24799;SDS011;12897;50.812;4.430;2023-04-25T10:03:59;12.37;;;2.92;;
24799;SDS011;12897;50.812;4.430;2023-04-25T10:06:29;14.47;;;4.05;;
24799;SDS011;12897;50.812;4.430;2023-04-25T10:08:59;12.18;;;2.67;;
24799;SDS011;12897;50.812;4.430;2023-04-25T10:11:29;16.95;;;2.92;;
24799;SDS011;12897;50.812;4.430;2023-04-25T10:13:58;15.08;;;3.33;;
24799;SDS011;12897;50.812;4.430;2023-04-25T10:16:30;15.30;;;3.27;;
24799;SDS011;12897;50.812;4.430;2023-04-25T10:18:57;13.78;;;2.60;;
24799;SDS011;12897;50.812;4.430;2023-04-25T10:21:25;16.05;;;3.08;;
24799;SDS011;12897;50.812;4.430;2023-04-25T10:23:56;11.88;;;2.67;;
24799;SDS011;12897;50.812;4.430;2023-04-25T10:26:24;11.68;;;2.62;;
24799;SDS011;12897;50.812;4.430;2023-04-25T10:28:59;15.43;;;2.80;;
24799;SDS011;12897;50.812;4.430;2023-04-25T10:31:32;11.85;;;2.58;;
24799;SDS011;12897;50.812;4.430;2023-04-25T10:34:01;13.50;;;2.70;;
24799;SDS011;12897;50.812;4.430;2023-04-25T10:36:31;18.62;;;3.02;;
24799;SDS011;12897;50.812;4.430;2023-04-25T10:38:58;11.83;;;3.25;;
24799;SDS011;12897;50.812;4.430;2023-04-25T10:41:56;14.70;;;2.83;;
24799;SDS011;12897;50.812;4.430;2023-04-25T10:44:16;9.38;;;3.00;;
24799;SDS011;12897;50.812;4.430;2023-04-25T10:46:50;13.50;;;2.67;;
24799;SDS011;12897;50.812;4.430;2023-04-25T10:49:41;8.73;;;2.25;;
24799;SDS011;12897;50.812;4.430;2023-04-25T10:52:16;11.55;;;1.85;;
24799;SDS011;12897;50.812;4.430;2023-04-25T10:54:54;7.10;;;2.10;;
24799;SDS011;12897;50.812;4.430;2023-04-25T10:57:38;11.30;;;2.40;;
24799;SDS011;12897;50.812;4.430;2023-04-25T11:00:15;8.90;;;2.15;;
24799;SDS011;12897;50.812;4.430;2023-04-25T11:02:48;9.38;;;1.82;;
24799;SDS011;12897;50.812;4.430;2023-04-25T11:07:52;7.75;;;1.52;;
24799;SDS011;12897;50.812;4.430;2023-04-25T11:10:27;9.88;;;2.15;;
24799;SDS011;12897;50.812;4.430;2023-04-25T11:12:57;11.38;;;2.08;;
24799;SDS011;12897;50.812;4.430;2023-04-25T11:15:25;8.73;;;2.85;;
24799;SDS011;12897;50.812;4.430;2023-04-25T11:17:55;12.70;;;2.30;;
24799;SDS011;12897;50.812;4.430;2023-04-25T11:20:24;9.65;;;2.02;;
24799;SDS011;12897;50.812;4.430;2023-04-25T11:22:54;11.28;;;2.55;;
24799;SDS011;12897;50.812;4.430;2023-04-25T11:25:27;12.70;;;2.37;;
24799;SDS011;12897;50.812;4.430;2023-04-25T11:27:57;11.57;;;2.47;;
24799;SDS011;12897;50.812;4.430;2023-04-25T11:30:27;9.48;;;2.22;;
24799;SDS011;12897;50.812;4.430;2023-04-25T11:32:58;11.20;;;2.62;;
24799;SDS011;12897;50.812;4.430;2023-04-25T11:35:26;8.15;;;2.50;;
24799;SDS011;12897;50.812;4.430;2023-04-25T11:37:58;14.87;;;2.90;;
24799;SDS011;12897;50.812;4.430;2023-04-25T11:40:26;14.30;;;2.85;;
24799;SDS011;12897;50.812;4.430;2023-04-25T11:42:54;8.83;;;2.25;;
24799;SDS011;12897;50.812;4.430;2023-04-25T11:45:22;8.33;;;2.10;;
24799;SDS011;12897;50.812;4.430;2023-04-25T11:47:50;7.70;;;1.92;;
24799;SDS011;12897;50.812;4.430;2023-04-25T11:50:20;10.58;;;1.98;;
24799;SDS011;12897;50.812;4.430;2023-04-25T11:52:48;6.40;;;1.72;;
24799;SDS011;12897;50.812;4.430;2023-04-25T11:55:17;10.55;;;2.30;;
24799;SDS011;12897;50.812;4.430;2023-04-25T11:57:48;11.38;;;1.80;;
24799;SDS011;12897;50.812;4.430;2023-04-25T12:00:20;8.45;;;1.75;;
24799;SDS011;12897;50.812;4.430;2023-04-25T12:02:57;10.43;;;2.10;;
24799;SDS011;12897;50.812;4.430;2023-04-25T12:05:24;8.90;;;1.72;;
24799;SDS011;12897;50.812;4.430;2023-04-25T12:07:55;12.70;;;1.98;;
24799;SDS011;12897;50.812;4.430;2023-04-25T12:10:24;12.80;;;2.23;;
24799;SDS011;12897;50.812;4.430;2023-04-25T12:12:52;7.53;;;2.02;;
24799;SDS011;12897;50.812;4.430;2023-04-25T12:15:23;6.80;;;1.77;;
24799;SDS011;12897;50.812;4.430;2023-04-25T12:17:58;7.45;;;2.10;;
24799;SDS011;12897;50.812;4.430;2023-04-25T12:20:25;6.33;;;1.80;;
24799;SDS011;12897;50.812;4.430;2023-04-25T12:22:53;10.38;;;2.27;;
24799;SDS011;12897;50.812;4.430;2023-04-25T12:25:40;10.88;;;1.77;;
24799;SDS011;12897;50.812;4.430;2023-04-25T12:28:23;7.97;;;1.85;;
24799;SDS011;12897;50.812;4.430;2023-04-25T12:30:54;3.70;;;1.47;;
24799;SDS011;12897;50.812;4.430;2023-04-25T12:33:28;9.55;;;1.90;;
24799;SDS011;12897;50.812;4.430;2023-04-25T12:35:57;4.08;;;1.70;;
24799;SDS011;12897;50.812;4.430;2023-04-25T12:38:29;6.53;;;1.75;;
24799;SDS011;12897;50.812;4.430;2023-04-25T12:41:00;5.95;;;1.42;;
24799;SDS011;12897;50.812;4.430;2023-04-25T12:43:28;5.35;;;1.47;;
24799;SDS011;12897;50.812;4.430;2023-04-25T12:46:02;3.70;;;1.40;;
24799;SDS011;12897;50.812;4.430;2023-04-25T12:48:27;2.20;;;1.02;;
24799;SDS011;12897;50.812;4.430;2023-04-25T12:50:57;7.67;;;1.35;;
24799;SDS011;12897;50.812;4.430;2023-04-25T12:53:25;4.05;;;1.27;;
24799;SDS011;12897;50.812;4.430;2023-04-25T12:55:52;5.75;;;1.30;;
24799;SDS011;12897;50.812;4.430;2023-04-25T12:58:21;7.12;;;1.37;;
24799;SDS011;12897;50.812;4.430;2023-04-25T13:03:22;8.30;;;1.80;;
24799;SDS011;12897;50.812;4.430;2023-04-25T13:05:51;6.72;;;1.47;;
24799;SDS011;12897;50.812;4.430;2023-04-25T13:08:19;5.72;;;1.50;;
24799;SDS011;12897;50.812;4.430;2023-04-25T13:10:47;7.28;;;1.57;;
24799;SDS011;12897;50.812;4.430;2023-04-25T13:13:17;8.68;;;2.05;;
24799;SDS011;12897;50.812;4.430;2023-04-25T13:15:44;9.53;;;1.82;;
24799;SDS011;12897;50.812;4.430;2023-04-25T13:18:12;10.95;;;2.00;;
24799;SDS011;12897;50.812;4.430;2023-04-25T13:20:39;8.28;;;2.10;;
24799;SDS011;12897;50.812;4.430;2023-04-25T13:23:07;5.67;;;1.72;;
24799;SDS011;12897;50.812;4.430;2023-04-25T13:25:35;12.50;;;1.98;;
24799;SDS011;12897;50.812;4.430;2023-04-25T13:28:03;9.13;;;2.05;;
24799;SDS011;12897;50.812;4.430;2023-04-25T13:33:01;7.80;;;1.60;;
24799;SDS011;12897;50.812;4.430;2023-04-25T13:35:30;8.95;;;2.58;;
24799;SDS011;12897;50.812;4.430;2023-04-25T13:37:58;6.70;;;1.95;;
24799;SDS011;12897;50.812;4.430;2023-04-25T13:40:26;7.90;;;1.50;;
24799;SDS011;12897;50.812;4.430;2023-04-25T13:42:54;3.47;;;1.60;;
24799;SDS011;12897;50.812;4.430;2023-04-25T13:45:22;11.28;;;1.80;;
24799;SDS011;12897;50.812;4.430;2023-04-25T13:47:50;4.33;;;1.35;;
24799;SDS011;12897;50.812;4.430;2023-04-25T13:50:18;9.05;;;1.62;;
24799;SDS011;12897;50.812;4.430;2023-04-25T13:52:46;8.20;;;1.70;;
24799;SDS011;12897;50.812;4.430;2023-04-25T13:55:13;7.45;;;1.87;;
24799;SDS011;12897;50.812;4.430;2023-04-25T13:57:41;5.00;;;1.50;;
24799;SDS011;12897;50.812;4.430;2023-04-25T14:00:09;5.10;;;1.60;;
24799;SDS011;12897;50.812;4.430;2023-04-25T14:02:37;3.62;;;1.40;;
24799;SDS011;12897;50.812;4.430;2023-04-25T14:05:05;6.92;;;1.30;;
24799;SDS011;12897;50.812;4.430;2023-04-25T14:07:35;8.00;;;1.62;;
24799;SDS011;12897;50.812;4.430;2023-04-25T14:10:03;6.17;;;2.10;;
24799;SDS011;12897;50.812;4.430;2023-04-25T14:12:31;8.60;;;2.05;;
24799;SDS011;12897;50.812;4.430;2023-04-25T14:14:59;6.87;;;1.90;;
24799;SDS011;12897;50.812;4.430;2023-04-25T14:17:27;7.22;;;2.00;;
24799;SDS011;12897;50.812;4.430;2023-04-25T14:19:55;14.87;;;2.47;;
24799;SDS011;12897;50.812;4.430;2023-04-25T14:22:23;10.95;;;2.08;;
24799;SDS011;12897;50.812;4.430;2023-04-25T14:24:52;9.68;;;1.77;;
24799;SDS011;12897;50.812;4.430;2023-04-25T14:27:20;12.88;;;1.80;;
24799;SDS011;12897;50.812;4.430;2023-04-25T14:29:50;10.10;;;1.75;;
24799;SDS011;12897;50.812;4.430;2023-04-25T14:32:17;9.20;;;2.27;;
24799;SDS011;12897;50.812;4.430;2023-04-25T14:34:46;9.85;;;1.72;;
24799;SDS011;12897;50.812;4.430;2023-04-25T14:37:14;9.15;;;1.80;;
24799;SDS011;12897;50.812;4.430;2023-04-25T14:39:42;8.95;;;1.98;;
24799;SDS011;12897;50.812;4.430;2023-04-25T14:42:10;7.45;;;1.60;;
24799;SDS011;12897;50.812;4.430;2023-04-25T14:44:39;5.37;;;1.77;;
24799;SDS011;12897;50.812;4.430;2023-04-25T14:47:06;7.03;;;1.50;;
24799;SDS011;12897;50.812;4.430;2023-04-25T14:49:34;8.28;;;1.62;;
24799;SDS011;12897;50.812;4.430;2023-04-25T14:52:01;8.00;;;1.77;;
24799;SDS011;12897;50.812;4.430;2023-04-25T14:54:31;6.25;;;1.72;;
24799;SDS011;12897;50.812;4.430;2023-04-25T14:56:59;6.30;;;1.67;;
24799;SDS011;12897;50.812;4.430;2023-04-25T14:59:29;5.60;;;1.70;;